sensor_id;sensor_type;location;lat;lon;timestamp;pressure;altitude;pressure_sealevel;temperature;humidity
71778;BME280;59609;52.430;4.668;2024-01-07T00:01:11;102008.53;;;1.20;100.00
71778;BME280;59609;52.430;4.668;2024-01-07T00:03:36;101998.16;;;1.11;100.00
71778;BME280;59609;52.430;4.668;2024-01-07T00:06:02;101990.28;;;1.07;100.00
71778;BME280;59609;52.430;4.668;2024-01-07T00:08:27;101998.72;;;1.00;100.00
71778;BME280;59609;52.430;4.668;2024-01-07T00:10:53;101990.16;;;0.91;100.00
71778;BME280;59609;52.430;4.668;2024-01-07T00:13:18;102009.34;;;1.05;100.00
71778;BME280;59609;52.430;4.668;2024-01-07T00:15:43;102020.50;;;0.99;100.00
71778;BME280;59609;52.430;4.668;2024-01-07T00:18:09;102009.50;;;1.02;100.00
71778;BME280;59609;52.430;4.668;2024-01-07T00:20:35;102010.38;;;1.02;100.00
71778;BME280;59609;52.430;4.668;2024-01-07T00:23:00;102019.00;;;1.11;100.00
71778;BME280;59609;52.430;4.668;2024-01-07T00:25:26;102030.88;;;1.08;100.00
71778;BME280;59609;52.430;4.668;2024-01-07T00:27:51;102021.97;;;1.06;100.00
71778;BME280;59609;52.430;4.668;2024-01-07T00:30:20;102039.53;;;1.16;100.00
71778;BME280;59609;52.430;4.668;2024-01-07T00:32:45;102014.03;;;1.01;100.00
71778;BME280;59609;52.430;4.668;2024-01-07T00:35:11;102033.44;;;1.11;100.00
71778;BME280;59609;52.430;4.668;2024-01-07T00:37:36;102026.34;;;1.09;100.00
71778;BME280;59609;52.430;4.668;2024-01-07T00:40:03;102026.91;;;1.15;100.00
71778;BME280;59609;52.430;4.668;2024-01-07T00:42:29;101985.22;;;0.82;100.00
71778;BME280;59609;52.430;4.668;2024-01-07T00:44:54;102040.25;;;1.20;100.00
71778;BME280;59609;52.430;4.668;2024-01-07T00:47:19;102045.91;;;1.15;100.00
71778;BME280;59609;52.430;4.668;2024-01-07T00:49:45;102044.59;;;1.05;100.00
71778;BME280;59609;52.430;4.668;2024-01-07T00:52:10;102045.28;;;1.10;100.00
71778;BME280;59609;52.430;4.668;2024-01-07T00:54:36;102033.13;;;1.00;100.00
71778;BME280;59609;52.430;4.668;2024-01-07T00:57:02;102053.47;;;1.09;100.00
71778;BME280;59609;52.430;4.668;2024-01-07T00:59:28;102043.81;;;1.03;100.00
71778;BME280;59609;52.430;4.668;2024-01-07T01:01:54;102034.78;;;1.02;100.00
71778;BME280;59609;52.430;4.668;2024-01-07T01:04:20;102052.19;;;0.98;100.00
71778;BME280;59609;52.430;4.668;2024-01-07T01:06:46;102044.75;;;1.02;100.00
71778;BME280;59609;52.430;4.668;2024-01-07T01:09:11;102049.16;;;1.04;100.00
71778;BME280;59609;52.430;4.668;2024-01-07T01:11:36;102045.88;;;0.98;100.00
71778;BME280;59609;52.430;4.668;2024-01-07T01:14:02;102052.19;;;0.98;100.00
71778;BME280;59609;52.430;4.668;2024-01-07T01:16:27;102057.44;;;1.01;100.00
71778;BME280;59609;52.430;4.668;2024-01-07T01:18:52;102055.84;;;0.97;100.00
71778;BME280;59609;52.430;4.668;2024-01-07T01:21:18;102067.34;;;1.02;100.00
71778;BME280;59609;52.430;4.668;2024-01-07T01:23:43;102053.06;;;0.99;100.00
71778;BME280;59609;52.430;4.668;2024-01-07T01:26:09;102066.97;;;1.10;100.00
71778;BME280;59609;52.430;4.668;2024-01-07T01:28:34;102072.84;;;1.01;100.00
71778;BME280;59609;52.430;4.668;2024-01-07T01:30:59;102054.31;;;0.92;100.00
71778;BME280;59609;52.430;4.668;2024-01-07T01:33:25;102060.09;;;1.03;100.00
71778;BME280;59609;52.430;4.668;2024-01-07T01:35:50;102086.91;;;1.09;100.00
71778;BME280;59609;52.430;4.668;2024-01-07T01:38:16;102075.56;;;1.01;100.00
71778;BME280;59609;52.430;4.668;2024-01-07T01:40:42;102080.81;;;1.04;100.00
71778;BME280;59609;52.430;4.668;2024-01-07T01:43:07;102068.47;;;0.98;100.00
71778;BME280;59609;52.430;4.668;2024-01-07T01:45:33;102087.06;;;1.06;100.00
71778;BME280;59609;52.430;4.668;2024-01-07T01:47:58;102083.31;;;1.09;100.00
71778;BME280;59609;52.430;4.668;2024-01-07T01:50:25;102078.22;;;1.02;100.00
71778;BME280;59609;52.430;4.668;2024-01-07T01:52:50;102064.06;;;0.96;100.00
71778;BME280;59609;52.430;4.668;2024-01-07T01:55:16;102051.03;;;0.85;100.00
71778;BME280;59609;52.430;4.668;2024-01-07T01:57:43;102100.25;;;1.14;100.00
71778;BME280;59609;52.430;4.668;2024-01-07T02:00:09;102073.88;;;0.98;100.00
71778;BME280;59609;52.430;4.668;2024-01-07T02:02:35;102089.47;;;1.12;100.00
71778;BME280;59609;52.430;4.668;2024-01-07T02:05:01;102083.47;;;1.06;100.00
71778;BME280;59609;52.430;4.668;2024-01-07T02:07:28;102099.75;;;1.06;100.00
71778;BME280;59609;52.430;4.668;2024-01-07T02:09:54;102076.81;;;0.94;100.00
71778;BME280;59609;52.430;4.668;2024-01-07T02:12:19;102098.88;;;1.05;100.00
71778;BME280;59609;52.430;4.668;2024-01-07T02:14:44;102105.03;;;1.09;100.00
71778;BME280;59609;52.430;4.668;2024-01-07T02:17:10;102091.25;;;0.94;100.00
71778;BME280;59609;52.430;4.668;2024-01-07T02:19:35;102110.63;;;1.06;100.00
71778;BME280;59609;52.430;4.668;2024-01-07T02:22:00;102112.38;;;1.07;100.00
71778;BME280;59609;52.430;4.668;2024-01-07T02:24:26;102109.66;;;1.07;100.00
71778;BME280;59609;52.430;4.668;2024-01-07T02:26:51;102104.75;;;0.96;100.00
71778;BME280;59609;52.430;4.668;2024-01-07T02:29:16;102115.94;;;1.07;100.00
71778;BME280;59609;52.430;4.668;2024-01-07T02:31:42;102102.09;;;0.94;100.00
71778;BME280;59609;52.430;4.668;2024-01-07T02:34:09;102118.91;;;1.02;100.00
71778;BME280;59609;52.430;4.668;2024-01-07T02:36:35;102115.94;;;1.07;100.00
71778;BME280;59609;52.430;4.668;2024-01-07T02:39:00;102102.84;;;0.98;100.00
71778;BME280;59609;52.430;4.668;2024-01-07T02:41:26;102107.16;;;1.02;100.00
71778;BME280;59609;52.430;4.668;2024-01-07T02:43:52;102111.56;;;1.04;100.00
71778;BME280;59609;52.430;4.668;2024-01-07T02:46:17;102118.19;;;0.99;100.00
71778;BME280;59609;52.430;4.668;2024-01-07T02:48:42;102123.16;;;1.08;100.00
71778;BME280;59609;52.430;4.668;2024-01-07T02:51:08;102109.94;;;1.00;100.00
71778;BME280;59609;52.430;4.668;2024-01-07T02:53:34;102134.72;;;1.12;100.00
71778;BME280;59609;52.430;4.668;2024-01-07T02:55:59;102139.28;;;1.11;100.00
71778;BME280;59609;52.430;4.668;2024-01-07T02:58:25;102145.44;;;1.15;100.00
71778;BME280;59609;52.430;4.668;2024-01-07T03:00:50;102131.44;;;1.05;100.00
71778;BME280;59609;52.430;4.668;2024-01-07T03:03:16;102148.25;;;1.13;100.00
71778;BME280;59609;52.430;4.668;2024-01-07T03:05:41;102146.47;;;1.12;100.00
71778;BME280;59609;52.430;4.668;2024-01-07T03:08:06;102119.84;;;1.01;100.00
71778;BME280;59609;52.430;4.668;2024-01-07T03:10:33;102137.97;;;1.01;100.00
71778;BME280;59609;52.430;4.668;2024-01-07T03:13:00;102141.19;;;1.09;100.00
71778;BME280;59609;52.430;4.668;2024-01-07T03:15:25;102159.00;;;1.15;100.00
71778;BME280;59609;52.430;4.668;2024-01-07T03:17:51;102155.56;;;1.11;100.00
71778;BME280;59609;52.430;4.668;2024-01-07T03:20:16;102140.47;;;1.06;100.00
71778;BME280;59609;52.430;4.668;2024-01-07T03:22:42;102162.44;;;1.18;100.00
71778;BME280;59609;52.430;4.668;2024-01-07T03:25:07;102155.06;;;1.03;100.00
71778;BME280;59609;52.430;4.668;2024-01-07T03:27:33;102160.81;;;1.14;100.00
71778;BME280;59609;52.430;4.668;2024-01-07T03:29:58;102170.94;;;1.11;100.00
71778;BME280;59609;52.430;4.668;2024-01-07T03:32:24;102167.75;;;1.02;100.00
71778;BME280;59609;52.430;4.668;2024-01-07T03:34:49;102157.38;;;1.11;100.00
71778;BME280;59609;52.430;4.668;2024-01-07T03:37:15;102156.06;;;1.00;100.00
71778;BME280;59609;52.430;4.668;2024-01-07T03:39:40;102180.88;;;1.12;100.00
71778;BME280;59609;52.430;4.668;2024-01-07T03:42:05;102175.44;;;1.12;100.00
71778;BME280;59609;52.430;4.668;2024-01-07T03:44:36;102172.81;;;1.10;100.00
71778;BME280;59609;52.430;4.668;2024-01-07T03:47:02;102176.31;;;1.12;100.00
71778;BME280;59609;52.430;4.668;2024-01-07T03:49:27;102168.47;;;1.06;100.00
71778;BME280;59609;52.430;4.668;2024-01-07T03:51:52;102192.44;;;1.15;100.00
71778;BME280;59609;52.430;4.668;2024-01-07T03:54:18;102178.31;;;1.09;100.00
71778;BME280;59609;52.430;4.668;2024-01-07T03:56:43;102198.09;;;1.11;100.00
71778;BME280;59609;52.430;4.668;2024-01-07T03:59:09;102195.53;;;1.08;100.00
71778;BME280;59609;52.430;4.668;2024-01-07T04:01:34;102208.09;;;1.10;100.00
71778;BME280;59609;52.430;4.668;2024-01-07T04:03:59;102213.44;;;1.12;100.00
71778;BME280;59609;52.430;4.668;2024-01-07T04:06:25;102199.28;;;1.05;100.00
71778;BME280;59609;52.430;4.668;2024-01-07T04:08:50;102175.94;;;0.82;100.00
71778;BME280;59609;52.430;4.668;2024-01-07T04:11:15;102208.28;;;1.06;100.00
71778;BME280;59609;52.430;4.668;2024-01-07T04:13:41;102220.69;;;1.11;100.00
71778;BME280;59609;52.430;4.668;2024-01-07T04:16:15;102224.38;;;1.10;100.00
71778;BME280;59609;52.430;4.668;2024-01-07T04:18:41;102227.19;;;1.07;100.00
71778;BME280;59609;52.430;4.668;2024-01-07T04:21:09;102206.97;;;0.95;100.00
71778;BME280;59609;52.430;4.668;2024-01-07T04:23:34;102212.19;;;1.00;100.00
71778;BME280;59609;52.430;4.668;2024-01-07T04:26:00;102212.03;;;1.03;100.00
71778;BME280;59609;52.430;4.668;2024-01-07T04:28:25;102205.56;;;0.87;100.00
71778;BME280;59609;52.430;4.668;2024-01-07T04:30:50;102231.97;;;1.02;100.00
71778;BME280;59609;52.430;4.668;2024-01-07T04:33:16;102233.59;;;1.06;100.00
71778;BME280;59609;52.430;4.668;2024-01-07T04:35:41;102245.25;;;1.08;100.00
71778;BME280;59609;52.430;4.668;2024-01-07T04:38:07;102226.56;;;1.02;100.00
71778;BME280;59609;52.430;4.668;2024-01-07T04:40:33;102242.69;;;1.05;100.00
71778;BME280;59609;52.430;4.668;2024-01-07T04:42:59;102218.13;;;0.89;100.00
71778;BME280;59609;52.430;4.668;2024-01-07T04:45:25;102251.63;;;1.07;100.00
71778;BME280;59609;52.430;4.668;2024-01-07T04:47:50;102208.34;;;0.85;100.00
71778;BME280;59609;52.430;4.668;2024-01-07T04:50:16;102244.00;;;0.96;100.00
71778;BME280;59609;52.430;4.668;2024-01-07T04:52:45;102231.75;;;0.88;100.00
71778;BME280;59609;52.430;4.668;2024-01-07T04:55:10;102248.41;;;0.99;100.00
71778;BME280;59609;52.430;4.668;2024-01-07T04:57:35;102239.44;;;0.97;100.00
71778;BME280;59609;52.430;4.668;2024-01-07T05:00:01;102238.09;;;0.87;100.00
71778;BME280;59609;52.430;4.668;2024-01-07T05:02:27;102240.97;;;0.84;100.00
71778;BME280;59609;52.430;4.668;2024-01-07T05:04:53;102247.06;;;0.89;100.00
71778;BME280;59609;52.430;4.668;2024-01-07T05:07:18;102238.94;;;0.89;100.00
71778;BME280;59609;52.430;4.668;2024-01-07T05:09:44;102258.66;;;0.92;100.00
71778;BME280;59609;52.430;4.668;2024-01-07T05:12:09;102242.94;;;0.80;100.00
71778;BME280;59609;52.430;4.668;2024-01-07T05:14:34;102226.28;;;0.69;100.00
71778;BME280;59609;52.430;4.668;2024-01-07T05:17:00;102263.50;;;0.86;100.00
71778;BME280;59609;52.430;4.668;2024-01-07T05:19:25;102258.88;;;0.88;100.00
71778;BME280;59609;52.430;4.668;2024-01-07T05:21:50;102269.94;;;0.83;100.00
71778;BME280;59609;52.430;4.668;2024-01-07T05:24:16;102270.81;;;0.84;100.00
71778;BME280;59609;52.430;4.668;2024-01-07T05:26:42;102291.97;;;0.96;100.00
71778;BME280;59609;52.430;4.668;2024-01-07T05:29:09;102297.38;;;0.96;100.00
71778;BME280;59609;52.430;4.668;2024-01-07T05:31:34;102276.97;;;0.87;100.00
71778;BME280;59609;52.430;4.668;2024-01-07T05:33:59;102304.50;;;0.98;100.00
71778;BME280;59609;52.430;4.668;2024-01-07T05:36:25;102284.38;;;0.84;100.00
71778;BME280;59609;52.430;4.668;2024-01-07T05:38:50;102287.91;;;0.86;100.00
71778;BME280;59609;52.430;4.668;2024-01-07T05:41:16;102287.81;;;0.87;100.00
71778;BME280;59609;52.430;4.668;2024-01-07T05:43:41;102303.75;;;0.95;100.00
71778;BME280;59609;52.430;4.668;2024-01-07T05:46:06;102309.22;;;0.93;100.00
71778;BME280;59609;52.430;4.668;2024-01-07T05:48:45;102323.63;;;0.95;100.00
71778;BME280;59609;52.430;4.668;2024-01-07T05:51:11;102308.38;;;0.93;100.00
71778;BME280;59609;52.430;4.668;2024-01-07T05:53:37;102311.44;;;0.85;100.00
71778;BME280;59609;52.430;4.668;2024-01-07T05:56:02;102311.56;;;0.82;100.00
71778;BME280;59609;52.430;4.668;2024-01-07T05:58:28;102325.50;;;0.93;100.00
71778;BME280;59609;52.430;4.668;2024-01-07T06:00:54;102333.59;;;0.95;100.00
71778;BME280;59609;52.430;4.668;2024-01-07T06:03:23;102286.09;;;0.66;100.00
71778;BME280;59609;52.430;4.668;2024-01-07T06:05:49;102312.72;;;0.77;100.00
71778;BME280;59609;52.430;4.668;2024-01-07T06:08:14;102341.06;;;0.90;100.00
71778;BME280;59609;52.430;4.668;2024-01-07T06:10:40;102347.44;;;0.89;100.00
71778;BME280;59609;52.430;4.668;2024-01-07T06:13:06;102328.97;;;0.77;100.00
71778;BME280;59609;52.430;4.668;2024-01-07T06:15:31;102331.91;;;0.72;100.00
71778;BME280;59609;52.430;4.668;2024-01-07T06:17:56;102338.50;;;0.67;100.00
71778;BME280;59609;52.430;4.668;2024-01-07T06:20:23;102340.09;;;0.71;100.00
71778;BME280;59609;52.430;4.668;2024-01-07T06:22:48;102360.31;;;0.84;100.00
71778;BME280;59609;52.430;4.668;2024-01-07T06:25:13;102333.78;;;0.70;100.00
71778;BME280;59609;52.430;4.668;2024-01-07T06:27:39;102368.44;;;0.84;100.00
71778;BME280;59609;52.430;4.668;2024-01-07T06:30:05;102359.03;;;0.72;100.00
71778;BME280;59609;52.430;4.668;2024-01-07T06:32:31;102358.16;;;0.72;100.00
71778;BME280;59609;52.430;4.668;2024-01-07T06:34:57;102369.59;;;0.78;100.00
71778;BME280;59609;52.430;4.668;2024-01-07T06:37:23;102377.94;;;0.74;100.00
71778;BME280;59609;52.430;4.668;2024-01-07T06:39:48;102372.78;;;0.68;100.00
71778;BME280;59609;52.430;4.668;2024-01-07T06:42:14;102402.09;;;0.80;100.00
71778;BME280;59609;52.430;4.668;2024-01-07T06:44:39;102396.94;;;0.74;100.00
71778;BME280;59609;52.430;4.668;2024-01-07T06:47:04;102374.84;;;0.63;100.00
71778;BME280;59609;52.430;4.668;2024-01-07T06:49:30;102404.06;;;0.76;100.00
71778;BME280;59609;52.430;4.668;2024-01-07T06:51:55;102399.16;;;0.64;100.00
71778;BME280;59609;52.430;4.668;2024-01-07T06:54:20;102407.78;;;0.74;100.00
71778;BME280;59609;52.430;4.668;2024-01-07T06:56:46;102392.22;;;0.57;100.00
71778;BME280;59609;52.430;4.668;2024-01-07T06:59:11;102422.16;;;0.76;100.00
71778;BME280;59609;52.430;4.668;2024-01-07T07:01:37;102425.00;;;0.73;100.00
71778;BME280;59609;52.430;4.668;2024-01-07T07:04:03;102415.78;;;0.57;100.00
71778;BME280;59609;52.430;4.668;2024-01-07T07:06:29;102439.25;;;0.78;100.00
71778;BME280;59609;52.430;4.668;2024-01-07T07:08:55;102432.44;;;0.68;100.00
71778;BME280;59609;52.430;4.668;2024-01-07T07:11:20;102431.38;;;0.72;100.00
71778;BME280;59609;52.430;4.668;2024-01-07T07:13:45;102456.59;;;0.74;100.00
71778;BME280;59609;52.430;4.668;2024-01-07T07:16:11;102455.72;;;0.73;100.00
71778;BME280;59609;52.430;4.668;2024-01-07T07:18:37;102443.28;;;0.68;100.00
71778;BME280;59609;52.430;4.668;2024-01-07T07:21:02;102459.31;;;0.74;100.00
71778;BME280;59609;52.430;4.668;2024-01-07T07:23:28;102458.75;;;0.66;100.00
71778;BME280;59609;52.430;4.668;2024-01-07T07:25:53;102451.88;;;0.57;100.00
71778;BME280;59609;52.430;4.668;2024-01-07T07:28:19;102465.00;;;0.68;100.00
71778;BME280;59609;52.430;4.668;2024-01-07T07:30:44;102448.31;;;0.57;100.00
71778;BME280;59609;52.430;4.668;2024-01-07T07:33:09;102483.72;;;0.74;100.00
71778;BME280;59609;52.430;4.668;2024-01-07T07:35:35;102459.19;;;0.55;100.00
71778;BME280;59609;52.430;4.668;2024-01-07T07:38:00;102472.50;;;0.61;100.00
71778;BME280;59609;52.430;4.668;2024-01-07T07:40:26;102475.97;;;0.65;100.00
71778;BME280;59609;52.430;4.668;2024-01-07T07:42:51;102491.19;;;0.69;100.00
71778;BME280;59609;52.430;4.668;2024-01-07T07:45:16;102475.28;;;0.60;100.00
71778;BME280;59609;52.430;4.668;2024-01-07T07:47:43;102475.34;;;0.58;100.00
71778;BME280;59609;52.430;4.668;2024-01-07T07:50:10;102494.00;;;0.66;100.00
71778;BME280;59609;52.430;4.668;2024-01-07T07:52:36;102503.03;;;0.66;100.00
71778;BME280;59609;52.430;4.668;2024-01-07T07:55:01;102518.97;;;0.74;100.00
71778;BME280;59609;52.430;4.668;2024-01-07T07:57:26;102503.03;;;0.66;100.00
71778;BME280;59609;52.430;4.668;2024-01-07T07:59:52;102505.94;;;0.62;100.00
71778;BME280;59609;52.430;4.668;2024-01-07T08:02:18;102514.38;;;0.76;100.00
71778;BME280;59609;52.430;4.668;2024-01-07T08:04:44;102501.22;;;0.67;100.00
71778;BME280;59609;52.430;4.668;2024-01-07T08:07:10;102529.47;;;0.83;100.00
71778;BME280;59609;52.430;4.668;2024-01-07T08:09:36;102532.19;;;0.83;100.00
71778;BME280;59609;52.430;4.668;2024-01-07T08:12:05;102512.06;;;0.67;100.00
71778;BME280;59609;52.430;4.668;2024-01-07T08:14:31;102521.94;;;0.68;100.00
71778;BME280;59609;52.430;4.668;2024-01-07T08:16:57;102523.09;;;0.62;100.00
71778;BME280;59609;52.430;4.668;2024-01-07T08:19:24;102544.28;;;0.74;100.00
71778;BME280;59609;52.430;4.668;2024-01-07T08:21:49;102542.41;;;0.76;100.00
71778;BME280;59609;52.430;4.668;2024-01-07T08:24:15;102540.75;;;0.72;100.00
71778;BME280;59609;52.430;4.668;2024-01-07T08:26:40;102544.34;;;0.73;100.00
71778;BME280;59609;52.430;4.668;2024-01-07T08:29:06;102553.56;;;0.69;100.00
71778;BME280;59609;52.430;4.668;2024-01-07T08:31:31;102561.44;;;0.75;100.00
71778;BME280;59609;52.430;4.668;2024-01-07T08:33:57;102567.91;;;0.71;100.00
71778;BME280;59609;52.430;4.668;2024-01-07T08:36:23;102570.47;;;0.75;100.00
71778;BME280;59609;52.430;4.668;2024-01-07T08:38:48;102522.59;;;0.52;100.00
71778;BME280;59609;52.430;4.668;2024-01-07T08:41:17;102564.91;;;0.78;100.00
71778;BME280;59609;52.430;4.668;2024-01-07T08:43:42;102531.59;;;0.53;100.00
71778;BME280;59609;52.430;4.668;2024-01-07T08:46:09;102578.41;;;0.80;100.00
71778;BME280;59609;52.430;4.668;2024-01-07T08:48:34;102564.56;;;0.64;100.00
71778;BME280;59609;52.430;4.668;2024-01-07T08:50:59;102553.94;;;0.60;100.00
71778;BME280;59609;52.430;4.668;2024-01-07T08:53:25;102563.50;;;0.68;100.00
71778;BME280;59609;52.430;4.668;2024-01-07T08:55:50;102584.91;;;0.76;100.00
71778;BME280;59609;52.430;4.668;2024-01-07T08:58:16;102588.72;;;0.70;100.00
71778;BME280;59609;52.430;4.668;2024-01-07T09:00:42;102593.94;;;0.76;100.00
71778;BME280;59609;52.430;4.668;2024-01-07T09:03:08;102590.97;;;0.82;100.00
71778;BME280;59609;52.430;4.668;2024-01-07T09:05:33;102586.09;;;0.69;100.00
71778;BME280;59609;52.430;4.668;2024-01-07T09:07:59;102604.78;;;0.76;100.00
71778;BME280;59609;52.430;4.668;2024-01-07T09:10:25;102605.97;;;0.69;100.00
71778;BME280;59609;52.430;4.668;2024-01-07T09:12:52;102605.63;;;0.77;100.00
71778;BME280;59609;52.430;4.668;2024-01-07T09:15:19;102606.84;;;0.70;100.00
71778;BME280;59609;52.430;4.668;2024-01-07T09:17:45;102603.13;;;0.72;100.00
71778;BME280;59609;52.430;4.668;2024-01-07T09:20:12;102606.66;;;0.74;100.00
71778;BME280;59609;52.430;4.668;2024-01-07T09:22:37;102616.41;;;0.80;100.00
71778;BME280;59609;52.430;4.668;2024-01-07T09:25:04;102615.38;;;0.82;100.00
71778;BME280;59609;52.430;4.668;2024-01-07T09:27:30;102625.09;;;0.88;100.00
71778;BME280;59609;52.430;4.668;2024-01-07T09:29:55;102628.66;;;0.90;100.00
71778;BME280;59609;52.430;4.668;2024-01-07T09:32:21;102636.59;;;0.94;100.00
71778;BME280;59609;52.430;4.668;2024-01-07T09:34:46;102601.56;;;0.67;100.00
71778;BME280;59609;52.430;4.668;2024-01-07T09:37:12;102622.16;;;0.71;100.00
71778;BME280;59609;52.430;4.668;2024-01-07T09:39:41;102634.75;;;0.73;100.00
71778;BME280;59609;52.430;4.668;2024-01-07T09:42:15;102647.03;;;0.82;100.00
71778;BME280;59609;52.430;4.668;2024-01-07T09:44:41;102663.84;;;0.91;100.00
71778;BME280;59609;52.430;4.668;2024-01-07T09:47:11;102658.53;;;0.88;100.00
71778;BME280;59609;52.430;4.668;2024-01-07T09:49:38;102635.59;;;0.74;100.00
71778;BME280;59609;52.430;4.668;2024-01-07T09:52:04;102655.22;;;0.80;100.00
71778;BME280;59609;52.430;4.668;2024-01-07T09:54:30;102644.81;;;0.70;100.00
71778;BME280;59609;52.430;4.668;2024-01-07T09:57:01;102670.28;;;0.89;100.00
71778;BME280;59609;52.430;4.668;2024-01-07T09:59:30;102663.28;;;0.83;100.00
71778;BME280;59609;52.430;4.668;2024-01-07T10:01:56;102644.94;;;0.67;100.00
71778;BME280;59609;52.430;4.668;2024-01-07T10:04:23;102645.16;;;0.61;100.00
71778;BME280;59609;52.430;4.668;2024-01-07T10:06:49;102676.16;;;0.77;100.00
71778;BME280;59609;52.430;4.668;2024-01-07T10:09:18;102699.41;;;0.84;100.00
71778;BME280;59609;52.430;4.668;2024-01-07T10:11:46;102687.38;;;0.91;100.00
71778;BME280;59609;52.430;4.668;2024-01-07T10:14:14;102688.44;;;0.87;100.00
71778;BME280;59609;52.430;4.668;2024-01-07T10:16:39;102680.13;;;0.91;100.00
71778;BME280;59609;52.430;4.668;2024-01-07T10:19:05;102691.56;;;0.99;100.00
71778;BME280;59609;52.430;4.668;2024-01-07T10:21:32;102685.94;;;1.04;100.00
71778;BME280;59609;52.430;4.668;2024-01-07T10:24:11;102688.84;;;0.99;100.00
71778;BME280;59609;52.430;4.668;2024-01-07T10:26:38;102667.84;;;0.81;100.00
71778;BME280;59609;52.430;4.668;2024-01-07T10:29:04;102702.97;;;1.08;100.00
71778;BME280;59609;52.430;4.668;2024-01-07T10:31:29;102690.94;;;1.15;100.00
71778;BME280;59609;52.430;4.668;2024-01-07T10:33:56;102680.38;;;1.07;100.00
71778;BME280;59609;52.430;4.668;2024-01-07T10:36:22;102708.06;;;1.17;100.00
71778;BME280;59609;52.430;4.668;2024-01-07T10:38:49;102678.25;;;1.15;100.00
71778;BME280;59609;52.430;4.668;2024-01-07T10:41:18;102705.16;;;1.21;100.00
71778;BME280;59609;52.430;4.668;2024-01-07T10:43:46;102689.13;;;1.15;100.00
71778;BME280;59609;52.430;4.668;2024-01-07T10:46:13;102721.72;;;1.14;100.00
71778;BME280;59609;52.430;4.668;2024-01-07T10:48:54;102697.09;;;1.20;100.00
71778;BME280;59609;52.430;4.668;2024-01-07T10:51:21;102688.66;;;1.04;100.00
71778;BME280;59609;52.430;4.668;2024-01-07T10:53:51;102706.84;;;1.02;100.00
71778;BME280;59609;52.430;4.668;2024-01-07T10:56:22;102709.91;;;1.16;100.00
71778;BME280;59609;52.430;4.668;2024-01-07T10:58:50;102709.56;;;1.02;100.00
71778;BME280;59609;52.430;4.668;2024-01-07T11:01:16;102723.34;;;1.19;100.00
71778;BME280;59609;52.430;4.668;2024-01-07T11:04:06;102724.28;;;1.18;100.00
71778;BME280;59609;52.430;4.668;2024-01-07T11:10:10;102726.69;;;1.26;100.00
71778;BME280;59609;52.430;4.668;2024-01-07T11:12:37;102725.81;;;1.25;100.00
71778;BME280;59609;52.430;4.668;2024-01-07T11:15:03;102735.91;;;1.22;100.00
71778;BME280;59609;52.430;4.668;2024-01-07T11:20:02;102733.63;;;0.88;100.00
71778;BME280;59609;52.430;4.668;2024-01-07T11:22:27;102725.84;;;1.02;100.00
71778;BME280;59609;52.430;4.668;2024-01-07T11:24:54;102740.00;;;1.10;100.00
71778;BME280;59609;52.430;4.668;2024-01-07T11:27:25;102725.94;;;1.22;100.00
71778;BME280;59609;52.430;4.668;2024-01-07T11:29:55;102741.63;;;2.01;100.00
71778;BME280;59609;52.430;4.668;2024-01-07T11:32:29;102738.00;;;2.22;100.00
71778;BME280;59609;52.430;4.668;2024-01-07T11:34:54;102734.06;;;2.29;100.00
71778;BME280;59609;52.430;4.668;2024-01-07T11:37:22;102739.66;;;2.46;100.00
71778;BME280;59609;52.430;4.668;2024-01-07T11:39:51;102725.16;;;1.84;100.00
71778;BME280;59609;52.430;4.668;2024-01-07T11:42:17;102710.38;;;1.91;100.00
71778;BME280;59609;52.430;4.668;2024-01-07T11:47:18;102753.03;;;1.89;100.00
71778;BME280;59609;52.430;4.668;2024-01-07T11:49:45;102751.47;;;1.62;100.00
71778;BME280;59609;52.430;4.668;2024-01-07T11:52:10;102758.88;;;1.80;100.00
71778;BME280;59609;52.430;4.668;2024-01-07T11:54:37;102780.19;;;1.67;100.00
71778;BME280;59609;52.430;4.668;2024-01-07T11:57:04;102756.81;;;1.85;100.00
71778;BME280;59609;52.430;4.668;2024-01-07T11:59:29;102701.00;;;2.38;100.00
71778;BME280;59609;52.430;4.668;2024-01-07T12:01:55;102693.28;;;2.29;100.00
71778;BME280;59609;52.430;4.668;2024-01-07T12:04:21;102721.22;;;2.33;100.00
71778;BME280;59609;52.430;4.668;2024-01-07T12:06:47;102736.56;;;1.72;100.00
71778;BME280;59609;52.430;4.668;2024-01-07T12:09:13;102761.19;;;1.67;100.00
71778;BME280;59609;52.430;4.668;2024-01-07T12:11:40;102769.03;;;1.75;100.00
71778;BME280;59609;52.430;4.668;2024-01-07T12:14:07;102760.66;;;2.01;100.00
71778;BME280;59609;52.430;4.668;2024-01-07T12:16:34;102747.59;;;1.89;100.00
71778;BME280;59609;52.430;4.668;2024-01-07T12:18:59;102755.78;;;2.09;100.00
71778;BME280;59609;52.430;4.668;2024-01-07T12:21:25;102756.31;;;1.97;100.00
71778;BME280;59609;52.430;4.668;2024-01-07T12:23:52;102746.91;;;1.84;100.00
71778;BME280;59609;52.430;4.668;2024-01-07T12:26:17;102760.03;;;2.36;100.00
71778;BME280;59609;52.430;4.668;2024-01-07T12:28:52;102750.00;;;2.77;100.00
71778;BME280;59609;52.430;4.668;2024-01-07T12:31:18;102747.66;;;2.29;100.00
71778;BME280;59609;52.430;4.668;2024-01-07T12:33:46;102768.31;;;2.13;100.00
71778;BME280;59609;52.430;4.668;2024-01-07T12:36:12;102745.94;;;2.06;100.00
71778;BME280;59609;52.430;4.668;2024-01-07T12:38:37;102764.03;;;1.86;100.00
71778;BME280;59609;52.430;4.668;2024-01-07T12:41:03;102747.59;;;1.89;100.00
71778;BME280;59609;52.430;4.668;2024-01-07T12:43:29;102765.78;;;1.87;100.00
71778;BME280;59609;52.430;4.668;2024-01-07T12:45:54;102757.19;;;2.59;100.00
71778;BME280;59609;52.430;4.668;2024-01-07T12:48:22;102739.38;;;2.52;100.00
71778;BME280;59609;52.430;4.668;2024-01-07T12:50:48;102763.72;;;2.14;100.00
71778;BME280;59609;52.430;4.668;2024-01-07T12:53:13;102749.97;;;1.76;100.00